sensor_id;sensor_type;location;lat;lon;timestamp;P1;durP1;ratioP1;P2;durP2;ratioP2
12129;SDS011;6128;59.340;18.040;2023-07-31T00:00:42;5.93;;;5.33;;
12129;SDS011;6128;59.340;18.040;2023-07-31T00:03:09;5.70;;;5.20;;
12129;SDS011;6128;59.340;18.040;2023-07-31T00:05:36;5.53;;;5.13;;
12129;SDS011;6128;59.340;18.040;2023-07-31T00:08:03;5.27;;;4.93;;
12129;SDS011;6128;59.340;18.040;2023-07-31T00:10:30;5.60;;;5.10;;
12129;SDS011;6128;59.340;18.040;2023-07-31T00:12:58;5.57;;;5.17;;
12129;SDS011;6128;59.340;18.040;2023-07-31T00:15:27;5.73;;;5.23;;
12129;SDS011;6128;59.340;18.040;2023-07-31T00:17:54;5.30;;;4.90;;
12129;SDS011;6128;59.340;18.040;2023-07-31T00:20:21;5.47;;;5.07;;
12129;SDS011;6128;59.340;18.040;2023-07-31T00:22:48;5.50;;;5.10;;
12129;SDS011;6128;59.340;18.040;2023-07-31T00:25:15;6.30;;;5.80;;
12129;SDS011;6128;59.340;18.040;2023-07-31T00:27:42;7.27;;;5.60;;
12129;SDS011;6128;59.340;18.040;2023-07-31T00:30:11;5.40;;;5.00;;
12129;SDS011;6128;59.340;18.040;2023-07-31T00:32:40;5.60;;;5.20;;
12129;SDS011;6128;59.340;18.040;2023-07-31T00:35:07;5.93;;;5.43;;
12129;SDS011;6128;59.340;18.040;2023-07-31T00:37:34;5.53;;;5.13;;
12129;SDS011;6128;59.340;18.040;2023-07-31T00:40:01;5.30;;;4.90;;
12129;SDS011;6128;59.340;18.040;2023-07-31T00:42:29;4.93;;;4.60;;
12129;SDS011;6128;59.340;18.040;2023-07-31T00:44:56;5.20;;;4.90;;
12129;SDS011;6128;59.340;18.040;2023-07-31T00:47:23;5.07;;;4.77;;
12129;SDS011;6128;59.340;18.040;2023-07-31T00:49:51;5.60;;;5.20;;
12129;SDS011;6128;59.340;18.040;2023-07-31T00:52:19;6.40;;;5.80;;
12129;SDS011;6128;59.340;18.040;2023-07-31T00:54:46;5.43;;;5.13;;
12129;SDS011;6128;59.340;18.040;2023-07-31T00:57:14;5.50;;;5.10;;
12129;SDS011;6128;59.340;18.040;2023-07-31T00:59:42;5.80;;;5.30;;
12129;SDS011;6128;59.340;18.040;2023-07-31T01:02:09;5.30;;;4.90;;
12129;SDS011;6128;59.340;18.040;2023-07-31T01:04:36;5.30;;;4.90;;
12129;SDS011;6128;59.340;18.040;2023-07-31T01:07:07;5.17;;;4.87;;
12129;SDS011;6128;59.340;18.040;2023-07-31T01:09:40;5.17;;;4.77;;
12129;SDS011;6128;59.340;18.040;2023-07-31T01:12:12;5.00;;;4.60;;
12129;SDS011;6128;59.340;18.040;2023-07-31T01:14:42;5.33;;;4.83;;
12129;SDS011;6128;59.340;18.040;2023-07-31T01:17:17;4.33;;;4.03;;
12129;SDS011;6128;59.340;18.040;2023-07-31T01:19:44;4.73;;;4.33;;
12129;SDS011;6128;59.340;18.040;2023-07-31T01:22:21;5.17;;;4.77;;
12129;SDS011;6128;59.340;18.040;2023-07-31T01:24:59;4.70;;;4.33;;
12129;SDS011;6128;59.340;18.040;2023-07-31T01:27:41;4.60;;;4.30;;
12129;SDS011;6128;59.340;18.040;2023-07-31T01:30:14;5.77;;;4.70;;
12129;SDS011;6128;59.340;18.040;2023-07-31T01:32:43;5.37;;;4.20;;
12129;SDS011;6128;59.340;18.040;2023-07-31T01:35:11;5.03;;;4.30;;
12129;SDS011;6128;59.340;18.040;2023-07-31T01:37:39;4.53;;;4.23;;
12129;SDS011;6128;59.340;18.040;2023-07-31T01:40:06;4.73;;;4.33;;
12129;SDS011;6128;59.340;18.040;2023-07-31T01:42:34;4.53;;;4.23;;
12129;SDS011;6128;59.340;18.040;2023-07-31T01:45:02;4.43;;;4.10;;
12129;SDS011;6128;59.340;18.040;2023-07-31T01:47:30;4.30;;;4.00;;
12129;SDS011;6128;59.340;18.040;2023-07-31T01:49:57;4.53;;;4.07;;
12129;SDS011;6128;59.340;18.040;2023-07-31T01:52:24;4.43;;;4.13;;
12129;SDS011;6128;59.340;18.040;2023-07-31T01:54:51;4.47;;;4.17;;
12129;SDS011;6128;59.340;18.040;2023-07-31T01:57:18;4.63;;;4.33;;
12129;SDS011;6128;59.340;18.040;2023-07-31T01:59:45;4.80;;;4.50;;
12129;SDS011;6128;59.340;18.040;2023-07-31T02:02:14;4.97;;;4.40;;
12129;SDS011;6128;59.340;18.040;2023-07-31T02:04:41;4.43;;;4.07;;
12129;SDS011;6128;59.340;18.040;2023-07-31T02:07:08;4.53;;;4.23;;
12129;SDS011;6128;59.340;18.040;2023-07-31T02:09:35;4.43;;;4.13;;
12129;SDS011;6128;59.340;18.040;2023-07-31T02:12:02;4.20;;;3.90;;
12129;SDS011;6128;59.340;18.040;2023-07-31T02:14:29;4.80;;;4.27;;
12129;SDS011;6128;59.340;18.040;2023-07-31T02:16:56;4.40;;;4.03;;
12129;SDS011;6128;59.340;18.040;2023-07-31T02:19:25;3.77;;;3.53;;
12129;SDS011;6128;59.340;18.040;2023-07-31T02:21:52;4.43;;;4.00;;
12129;SDS011;6128;59.340;18.040;2023-07-31T02:24:19;4.60;;;4.00;;
12129;SDS011;6128;59.340;18.040;2023-07-31T02:26:46;4.77;;;4.17;;
12129;SDS011;6128;59.340;18.040;2023-07-31T02:29:13;4.27;;;3.97;;
12129;SDS011;6128;59.340;18.040;2023-07-31T02:31:40;4.40;;;4.10;;
12129;SDS011;6128;59.340;18.040;2023-07-31T02:34:07;4.30;;;3.90;;
12129;SDS011;6128;59.340;18.040;2023-07-31T02:36:36;3.93;;;3.63;;
12129;SDS011;6128;59.340;18.040;2023-07-31T02:39:03;4.47;;;3.57;;
12129;SDS011;6128;59.340;18.040;2023-07-31T02:41:30;4.20;;;3.70;;
12129;SDS011;6128;59.340;18.040;2023-07-31T02:43:57;4.40;;;4.10;;
12129;SDS011;6128;59.340;18.040;2023-07-31T02:46:24;5.13;;;4.10;;
12129;SDS011;6128;59.340;18.040;2023-07-31T02:48:51;7.90;;;3.87;;
12129;SDS011;6128;59.340;18.040;2023-07-31T02:51:18;4.07;;;3.77;;
12129;SDS011;6128;59.340;18.040;2023-07-31T02:53:48;3.87;;;3.57;;
12129;SDS011;6128;59.340;18.040;2023-07-31T02:56:15;4.17;;;3.87;;
12129;SDS011;6128;59.340;18.040;2023-07-31T02:58:42;4.57;;;3.70;;
12129;SDS011;6128;59.340;18.040;2023-07-31T03:01:09;4.10;;;3.70;;
12129;SDS011;6128;59.340;18.040;2023-07-31T03:03:36;3.87;;;3.50;;
12129;SDS011;6128;59.340;18.040;2023-07-31T03:06:03;4.93;;;4.43;;
12129;SDS011;6128;59.340;18.040;2023-07-31T03:08:30;4.57;;;4.27;;
12129;SDS011;6128;59.340;18.040;2023-07-31T03:10:58;4.87;;;4.47;;
12129;SDS011;6128;59.340;18.040;2023-07-31T03:13:25;4.60;;;4.20;;
12129;SDS011;6128;59.340;18.040;2023-07-31T03:15:52;5.27;;;4.87;;
12129;SDS011;6128;59.340;18.040;2023-07-31T03:18:19;4.60;;;4.30;;
12129;SDS011;6128;59.340;18.040;2023-07-31T03:20:46;4.93;;;4.53;;
12129;SDS011;6128;59.340;18.040;2023-07-31T03:23:13;5.07;;;4.57;;
12129;SDS011;6128;59.340;18.040;2023-07-31T03:25:42;5.43;;;5.03;;
12129;SDS011;6128;59.340;18.040;2023-07-31T03:28:23;5.47;;;5.07;;
12129;SDS011;6128;59.340;18.040;2023-07-31T03:30:50;5.53;;;5.13;;
12129;SDS011;6128;59.340;18.040;2023-07-31T03:33:18;5.20;;;4.80;;
12129;SDS011;6128;59.340;18.040;2023-07-31T03:35:45;5.87;;;5.37;;
12129;SDS011;6128;59.340;18.040;2023-07-31T03:38:12;6.03;;;5.53;;
12129;SDS011;6128;59.340;18.040;2023-07-31T03:40:39;6.07;;;5.67;;
12129;SDS011;6128;59.340;18.040;2023-07-31T03:43:07;6.13;;;5.70;;
12129;SDS011;6128;59.340;18.040;2023-07-31T03:45:35;6.23;;;5.73;;
12129;SDS011;6128;59.340;18.040;2023-07-31T03:48:03;6.07;;;5.60;;
12129;SDS011;6128;59.340;18.040;2023-07-31T03:50:30;5.93;;;5.40;;
12129;SDS011;6128;59.340;18.040;2023-07-31T03:52:57;6.10;;;5.53;;
12129;SDS011;6128;59.340;18.040;2023-07-31T03:55:24;5.87;;;5.30;;
12129;SDS011;6128;59.340;18.040;2023-07-31T03:57:51;6.40;;;5.90;;
12129;SDS011;6128;59.340;18.040;2023-07-31T04:00:18;5.97;;;5.40;;
12129;SDS011;6128;59.340;18.040;2023-07-31T04:02:48;7.10;;;5.70;;
12129;SDS011;6128;59.340;18.040;2023-07-31T04:05:15;6.00;;;5.27;;
12129;SDS011;6128;59.340;18.040;2023-07-31T04:07:42;5.23;;;4.77;;
12129;SDS011;6128;59.340;18.040;2023-07-31T04:10:10;5.17;;;4.77;;
12129;SDS011;6128;59.340;18.040;2023-07-31T04:12:37;5.90;;;5.40;;
12129;SDS011;6128;59.340;18.040;2023-07-31T04:15:04;5.40;;;4.93;;
12129;SDS011;6128;59.340;18.040;2023-07-31T04:17:32;6.13;;;5.73;;
12129;SDS011;6128;59.340;18.040;2023-07-31T04:20:00;5.80;;;4.90;;
12129;SDS011;6128;59.340;18.040;2023-07-31T04:22:28;8.03;;;5.33;;
12129;SDS011;6128;59.340;18.040;2023-07-31T04:24:55;5.27;;;4.87;;
12129;SDS011;6128;59.340;18.040;2023-07-31T04:27:22;5.43;;;5.00;;
12129;SDS011;6128;59.340;18.040;2023-07-31T04:29:49;5.33;;;5.00;;
12129;SDS011;6128;59.340;18.040;2023-07-31T04:32:16;5.87;;;5.07;;
12129;SDS011;6128;59.340;18.040;2023-07-31T04:34:44;5.67;;;5.37;;
12129;SDS011;6128;59.340;18.040;2023-07-31T04:37:12;6.73;;;5.97;;
12129;SDS011;6128;59.340;18.040;2023-07-31T04:39:39;6.30;;;5.80;;
12129;SDS011;6128;59.340;18.040;2023-07-31T04:42:06;6.33;;;5.50;;
12129;SDS011;6128;59.340;18.040;2023-07-31T04:44:34;5.73;;;5.23;;
12129;SDS011;6128;59.340;18.040;2023-07-31T04:47:01;5.63;;;5.20;;
12129;SDS011;6128;59.340;18.040;2023-07-31T04:49:28;5.80;;;5.30;;
12129;SDS011;6128;59.340;18.040;2023-07-31T04:51:55;5.30;;;4.90;;
12129;SDS011;6128;59.340;18.040;2023-07-31T04:54:24;6.20;;;5.60;;
12129;SDS011;6128;59.340;18.040;2023-07-31T04:56:51;6.73;;;6.03;;
12129;SDS011;6128;59.340;18.040;2023-07-31T04:59:18;4.90;;;4.50;;
12129;SDS011;6128;59.340;18.040;2023-07-31T05:01:45;5.60;;;5.10;;
12129;SDS011;6128;59.340;18.040;2023-07-31T05:04:12;4.90;;;4.50;;
12129;SDS011;6128;59.340;18.040;2023-07-31T05:06:40;5.60;;;5.20;;
12129;SDS011;6128;59.340;18.040;2023-07-31T05:09:07;5.83;;;5.43;;
12129;SDS011;6128;59.340;18.040;2023-07-31T05:11:37;5.63;;;5.23;;
12129;SDS011;6128;59.340;18.040;2023-07-31T05:14:05;5.20;;;4.80;;
12129;SDS011;6128;59.340;18.040;2023-07-31T05:16:32;6.07;;;5.53;;
12129;SDS011;6128;59.340;18.040;2023-07-31T05:18:59;5.60;;;5.10;;
12129;SDS011;6128;59.340;18.040;2023-07-31T05:21:26;6.00;;;5.50;;
12129;SDS011;6128;59.340;18.040;2023-07-31T05:23:53;5.70;;;5.20;;
12129;SDS011;6128;59.340;18.040;2023-07-31T05:26:20;6.13;;;5.63;;
12129;SDS011;6128;59.340;18.040;2023-07-31T05:28:49;5.40;;;4.90;;
12129;SDS011;6128;59.340;18.040;2023-07-31T05:31:16;5.17;;;4.77;;
12129;SDS011;6128;59.340;18.040;2023-07-31T05:33:43;6.13;;;5.63;;
12129;SDS011;6128;59.340;18.040;2023-07-31T05:36:10;6.17;;;5.57;;
12129;SDS011;6128;59.340;18.040;2023-07-31T05:38:37;5.83;;;5.43;;
12129;SDS011;6128;59.340;18.040;2023-07-31T05:41:04;6.30;;;5.70;;
12129;SDS011;6128;59.340;18.040;2023-07-31T05:43:31;6.70;;;6.10;;
12129;SDS011;6128;59.340;18.040;2023-07-31T05:46:00;6.60;;;6.03;;
12129;SDS011;6128;59.340;18.040;2023-07-31T05:48:27;5.30;;;4.90;;
12129;SDS011;6128;59.340;18.040;2023-07-31T05:50:54;5.63;;;5.17;;
12129;SDS011;6128;59.340;18.040;2023-07-31T05:53:21;5.63;;;5.23;;
12129;SDS011;6128;59.340;18.040;2023-07-31T05:55:49;5.80;;;5.33;;
12129;SDS011;6128;59.340;18.040;2023-07-31T05:58:16;5.30;;;4.90;;
12129;SDS011;6128;59.340;18.040;2023-07-31T06:00:43;5.80;;;5.40;;
12129;SDS011;6128;59.340;18.040;2023-07-31T06:03:11;5.70;;;5.13;;
12129;SDS011;6128;59.340;18.040;2023-07-31T06:05:38;5.53;;;5.10;;
12129;SDS011;6128;59.340;18.040;2023-07-31T06:08:05;5.53;;;5.03;;
12129;SDS011;6128;59.340;18.040;2023-07-31T06:10:32;5.90;;;5.40;;
12129;SDS011;6128;59.340;18.040;2023-07-31T06:13:00;5.83;;;5.13;;
12129;SDS011;6128;59.340;18.040;2023-07-31T06:15:27;5.20;;;4.80;;
12129;SDS011;6128;59.340;18.040;2023-07-31T06:17:54;4.80;;;4.40;;
12129;SDS011;6128;59.340;18.040;2023-07-31T06:20:23;4.80;;;4.40;;
12129;SDS011;6128;59.340;18.040;2023-07-31T06:22:50;5.17;;;4.67;;
12129;SDS011;6128;59.340;18.040;2023-07-31T06:25:17;6.37;;;5.53;;
12129;SDS011;6128;59.340;18.040;2023-07-31T06:27:44;7.70;;;6.50;;
12129;SDS011;6128;59.340;18.040;2023-07-31T06:30:11;6.30;;;5.80;;
12129;SDS011;6128;59.340;18.040;2023-07-31T06:32:38;5.87;;;5.30;;
12129;SDS011;6128;59.340;18.040;2023-07-31T06:35:06;5.27;;;4.77;;
12129;SDS011;6128;59.340;18.040;2023-07-31T06:37:35;6.10;;;5.60;;
12129;SDS011;6128;59.340;18.040;2023-07-31T06:40:05;4.80;;;4.40;;
12129;SDS011;6128;59.340;18.040;2023-07-31T06:42:34;5.70;;;5.10;;
12129;SDS011;6128;59.340;18.040;2023-07-31T06:45:01;4.27;;;3.97;;
12129;SDS011;6128;59.340;18.040;2023-07-31T06:47:28;4.80;;;4.23;;
12129;SDS011;6128;59.340;18.040;2023-07-31T06:49:55;5.20;;;4.47;;
12129;SDS011;6128;59.340;18.040;2023-07-31T06:52:22;5.67;;;4.50;;
12129;SDS011;6128;59.340;18.040;2023-07-31T06:55:01;3.63;;;3.33;;
12129;SDS011;6128;59.340;18.040;2023-07-31T06:57:30;4.10;;;3.80;;
12129;SDS011;6128;59.340;18.040;2023-07-31T06:59:57;3.63;;;3.30;;
12129;SDS011;6128;59.340;18.040;2023-07-31T07:02:24;3.90;;;3.20;;
12129;SDS011;6128;59.340;18.040;2023-07-31T07:04:51;5.17;;;3.40;;
12129;SDS011;6128;59.340;18.040;2023-07-31T07:07:18;4.50;;;2.70;;
12129;SDS011;6128;59.340;18.040;2023-07-31T07:09:45;5.17;;;2.80;;
12129;SDS011;6128;59.340;18.040;2023-07-31T07:12:14;4.30;;;3.40;;
12129;SDS011;6128;59.340;18.040;2023-07-31T07:14:41;4.43;;;2.10;;
12129;SDS011;6128;59.340;18.040;2023-07-31T07:17:08;5.10;;;2.73;;
12129;SDS011;6128;59.340;18.040;2023-07-31T07:19:35;2.47;;;1.70;;
12129;SDS011;6128;59.340;18.040;2023-07-31T07:22:02;2.50;;;2.30;;
12129;SDS011;6128;59.340;18.040;2023-07-31T07:24:29;4.80;;;2.43;;
12129;SDS011;6128;59.340;18.040;2023-07-31T07:26:56;4.03;;;2.30;;
12129;SDS011;6128;59.340;18.040;2023-07-31T07:29:25;4.20;;;2.37;;
12129;SDS011;6128;59.340;18.040;2023-07-31T07:31:52;4.40;;;2.77;;
12129;SDS011;6128;59.340;18.040;2023-07-31T07:34:19;4.43;;;4.00;;
12129;SDS011;6128;59.340;18.040;2023-07-31T07:36:48;3.33;;;2.57;;
12129;SDS011;6128;59.340;18.040;2023-07-31T07:39:15;5.97;;;2.50;;
12129;SDS011;6128;59.340;18.040;2023-07-31T07:41:42;3.53;;;2.10;;
12129;SDS011;6128;59.340;18.040;2023-07-31T07:44:09;3.37;;;3.03;;
12129;SDS011;6128;59.340;18.040;2023-07-31T07:46:38;2.10;;;1.80;;
12129;SDS011;6128;59.340;18.040;2023-07-31T07:49:05;2.67;;;2.30;;
12129;SDS011;6128;59.340;18.040;2023-07-31T07:51:32;3.53;;;2.27;;
12129;SDS011;6128;59.340;18.040;2023-07-31T07:54:00;3.17;;;2.20;;
12129;SDS011;6128;59.340;18.040;2023-07-31T07:56:27;2.77;;;1.90;;
12129;SDS011;6128;59.340;18.040;2023-07-31T07:58:54;5.57;;;2.77;;
12129;SDS011;6128;59.340;18.040;2023-07-31T08:01:21;2.87;;;2.67;;
12129;SDS011;6128;59.340;18.040;2023-07-31T08:03:50;4.47;;;2.07;;
12129;SDS011;6128;59.340;18.040;2023-07-31T08:06:17;3.17;;;1.97;;
12129;SDS011;6128;59.340;18.040;2023-07-31T08:08:44;3.23;;;2.07;;
12129;SDS011;6128;59.340;18.040;2023-07-31T08:11:11;4.60;;;2.30;;
12129;SDS011;6128;59.340;18.040;2023-07-31T08:13:38;6.53;;;2.50;;
12129;SDS011;6128;59.340;18.040;2023-07-31T08:16:05;4.30;;;2.50;;
12129;SDS011;6128;59.340;18.040;2023-07-31T08:18:32;2.63;;;2.07;;
12129;SDS011;6128;59.340;18.040;2023-07-31T08:21:01;3.30;;;2.30;;
12129;SDS011;6128;59.340;18.040;2023-07-31T08:23:28;3.63;;;2.27;;
12129;SDS011;6128;59.340;18.040;2023-07-31T08:25:55;3.20;;;2.00;;
12129;SDS011;6128;59.340;18.040;2023-07-31T08:28:22;3.93;;;2.40;;
12129;SDS011;6128;59.340;18.040;2023-07-31T08:30:49;3.77;;;2.23;;
12129;SDS011;6128;59.340;18.040;2023-07-31T08:33:16;2.80;;;2.33;;
12129;SDS011;6128;59.340;18.040;2023-07-31T08:35:43;4.20;;;2.33;;
12129;SDS011;6128;59.340;18.040;2023-07-31T08:38:13;5.70;;;2.67;;
12129;SDS011;6128;59.340;18.040;2023-07-31T08:40:40;4.87;;;2.57;;
12129;SDS011;6128;59.340;18.040;2023-07-31T08:43:08;4.50;;;2.17;;
12129;SDS011;6128;59.340;18.040;2023-07-31T08:45:35;4.27;;;2.90;;
12129;SDS011;6128;59.340;18.040;2023-07-31T08:48:03;3.67;;;2.00;;
12129;SDS011;6128;59.340;18.040;2023-07-31T08:50:30;4.30;;;2.37;;
12129;SDS011;6128;59.340;18.040;2023-07-31T08:52:58;2.93;;;2.43;;
12129;SDS011;6128;59.340;18.040;2023-07-31T08:55:26;5.10;;;2.77;;
12129;SDS011;6128;59.340;18.040;2023-07-31T08:57:54;4.07;;;2.10;;
12129;SDS011;6128;59.340;18.040;2023-07-31T09:00:22;2.50;;;1.97;;
12129;SDS011;6128;59.340;18.040;2023-07-31T09:02:52;2.63;;;1.90;;
12129;SDS011;6128;59.340;18.040;2023-07-31T09:05:22;2.97;;;1.83;;
12129;SDS011;6128;59.340;18.040;2023-07-31T09:07:52;6.93;;;2.10;;
12129;SDS011;6128;59.340;18.040;2023-07-31T09:10:21;5.00;;;1.83;;
12129;SDS011;6128;59.340;18.040;2023-07-31T09:12:50;4.10;;;1.80;;
12129;SDS011;6128;59.340;18.040;2023-07-31T09:15:18;2.27;;;1.40;;
12129;SDS011;6128;59.340;18.040;2023-07-31T09:17:46;2.87;;;1.67;;
12129;SDS011;6128;59.340;18.040;2023-07-31T09:20:13;2.17;;;1.40;;
12129;SDS011;6128;59.340;18.040;2023-07-31T09:22:41;1.93;;;1.20;;
12129;SDS011;6128;59.340;18.040;2023-07-31T09:25:15;3.00;;;1.30;;
12129;SDS011;6128;59.340;18.040;2023-07-31T09:27:46;4.80;;;1.80;;
12129;SDS011;6128;59.340;18.040;2023-07-31T09:30:16;2.93;;;2.10;;
12129;SDS011;6128;59.340;18.040;2023-07-31T09:32:44;1.93;;;1.33;;
12129;SDS011;6128;59.340;18.040;2023-07-31T09:35:18;1.43;;;1.20;;
12129;SDS011;6128;59.340;18.040;2023-07-31T09:37:50;2.47;;;1.20;;
12129;SDS011;6128;59.340;18.040;2023-07-31T09:40:27;2.30;;;1.10;;
12129;SDS011;6128;59.340;18.040;2023-07-31T09:42:56;3.33;;;1.53;;
12129;SDS011;6128;59.340;18.040;2023-07-31T09:45:26;2.87;;;1.83;;
12129;SDS011;6128;59.340;18.040;2023-07-31T09:47:53;1.97;;;1.10;;
12129;SDS011;6128;59.340;18.040;2023-07-31T09:50:21;2.37;;;1.30;;
12129;SDS011;6128;59.340;18.040;2023-07-31T09:52:49;2.60;;;1.47;;
12129;SDS011;6128;59.340;18.040;2023-07-31T09:55:17;3.10;;;1.63;;
12129;SDS011;6128;59.340;18.040;2023-07-31T09:57:45;2.07;;;1.37;;
12129;SDS011;6128;59.340;18.040;2023-07-31T10:00:14;2.53;;;1.10;;
12129;SDS011;6128;59.340;18.040;2023-07-31T10:02:44;2.13;;;1.23;;
12129;SDS011;6128;59.340;18.040;2023-07-31T10:05:13;1.80;;;1.07;;
12129;SDS011;6128;59.340;18.040;2023-07-31T10:07:42;2.73;;;1.43;;
12129;SDS011;6128;59.340;18.040;2023-07-31T10:10:11;3.07;;;1.33;;
12129;SDS011;6128;59.340;18.040;2023-07-31T10:12:41;4.07;;;2.20;;
12129;SDS011;6128;59.340;18.040;2023-07-31T10:15:10;1.73;;;1.37;;
12129;SDS011;6128;59.340;18.040;2023-07-31T10:17:37;1.73;;;1.20;;
12129;SDS011;6128;59.340;18.040;2023-07-31T10:20:07;3.77;;;1.50;;
12129;SDS011;6128;59.340;18.040;2023-07-31T10:22:35;3.77;;;1.50;;
12129;SDS011;6128;59.340;18.040;2023-07-31T10:25:03;1.40;;;1.30;;
12129;SDS011;6128;59.340;18.040;2023-07-31T10:27:31;1.73;;;1.30;;
12129;SDS011;6128;59.340;18.040;2023-07-31T10:30:01;2.17;;;1.30;;
12129;SDS011;6128;59.340;18.040;2023-07-31T10:32:32;3.13;;;1.23;;
12129;SDS011;6128;59.340;18.040;2023-07-31T10:35:00;2.90;;;1.40;;
12129;SDS011;6128;59.340;18.040;2023-07-31T10:37:35;2.07;;;1.30;;
12129;SDS011;6128;59.340;18.040;2023-07-31T10:40:04;2.95;;;1.35;;
12129;SDS011;6128;59.340;18.040;2023-07-31T10:42:33;2.03;;;1.40;;
12129;SDS011;6128;59.340;18.040;2023-07-31T10:45:02;1.83;;;1.40;;
12129;SDS011;6128;59.340;18.040;2023-07-31T10:47:31;1.50;;;0.77;;
12129;SDS011;6128;59.340;18.040;2023-07-31T10:52:50;2.87;;;1.40;;
12129;SDS011;6128;59.340;18.040;2023-07-31T10:55:26;0.90;;;0.87;;
12129;SDS011;6128;59.340;18.040;2023-07-31T10:57:55;2.57;;;1.10;;
12129;SDS011;6128;59.340;18.040;2023-07-31T11:00:24;1.03;;;0.90;;
12129;SDS011;6128;59.340;18.040;2023-07-31T11:02:56;2.37;;;1.10;;
12129;SDS011;6128;59.340;18.040;2023-07-31T11:08:12;2.63;;;1.10;;
12129;SDS011;6128;59.340;18.040;2023-07-31T11:10:41;3.10;;;0.90;;
12129;SDS011;6128;59.340;18.040;2023-07-31T11:13:09;2.30;;;0.97;;
12129;SDS011;6128;59.340;18.040;2023-07-31T11:15:36;1.00;;;0.80;;
12129;SDS011;6128;59.340;18.040;2023-07-31T11:18:03;1.33;;;0.70;;
12129;SDS011;6128;59.340;18.040;2023-07-31T11:20:33;1.63;;;0.97;;
12129;SDS011;6128;59.340;18.040;2023-07-31T11:23:01;3.83;;;0.90;;
12129;SDS011;6128;59.340;18.040;2023-07-31T11:25:31;1.43;;;0.80;;
12129;SDS011;6128;59.340;18.040;2023-07-31T11:28:01;3.00;;;1.10;;
12129;SDS011;6128;59.340;18.040;2023-07-31T11:30:30;1.27;;;0.70;;
12129;SDS011;6128;59.340;18.040;2023-07-31T11:32:57;1.90;;;1.13;;
12129;SDS011;6128;59.340;18.040;2023-07-31T11:35:24;3.47;;;1.40;;
12129;SDS011;6128;59.340;18.040;2023-07-31T11:37:51;1.47;;;1.00;;
12129;SDS011;6128;59.340;18.040;2023-07-31T11:40:18;0.90;;;0.90;;
12129;SDS011;6128;59.340;18.040;2023-07-31T11:42:47;2.23;;;1.00;;
12129;SDS011;6128;59.340;18.040;2023-07-31T11:45:14;1.93;;;1.23;;
12129;SDS011;6128;59.340;18.040;2023-07-31T11:47:42;1.73;;;0.90;;
12129;SDS011;6128;59.340;18.040;2023-07-31T11:50:10;3.27;;;0.87;;
12129;SDS011;6128;59.340;18.040;2023-07-31T11:52:39;3.33;;;1.60;;
12129;SDS011;6128;59.340;18.040;2023-07-31T11:55:09;4.30;;;1.33;;
12129;SDS011;6128;59.340;18.040;2023-07-31T11:57:38;2.47;;;1.43;;
12129;SDS011;6128;59.340;18.040;2023-07-31T12:00:09;1.67;;;1.27;;
12129;SDS011;6128;59.340;18.040;2023-07-31T12:02:38;1.63;;;1.30;;
12129;SDS011;6128;59.340;18.040;2023-07-31T12:05:06;1.70;;;1.17;;
12129;SDS011;6128;59.340;18.040;2023-07-31T12:07:45;1.73;;;1.17;;
12129;SDS011;6128;59.340;18.040;2023-07-31T12:10:23;2.10;;;1.53;;
12129;SDS011;6128;59.340;18.040;2023-07-31T12:13:02;2.77;;;1.30;;
12129;SDS011;6128;59.340;18.040;2023-07-31T12:15:35;3.83;;;1.77;;
12129;SDS011;6128;59.340;18.040;2023-07-31T12:18:05;2.87;;;2.00;;
12129;SDS011;6128;59.340;18.040;2023-07-31T12:20:33;3.93;;;1.70;;
12129;SDS011;6128;59.340;18.040;2023-07-31T12:23:02;3.17;;;1.77;;
12129;SDS011;6128;59.340;18.040;2023-07-31T12:25:30;3.43;;;2.00;;
12129;SDS011;6128;59.340;18.040;2023-07-31T12:28:03;3.57;;;1.50;;
12129;SDS011;6128;59.340;18.040;2023-07-31T12:30:32;7.50;;;6.70;;
12129;SDS011;6128;59.340;18.040;2023-07-31T12:33:04;2.00;;;1.50;;
12129;SDS011;6128;59.340;18.040;2023-07-31T12:35:35;2.60;;;1.43;;
12129;SDS011;6128;59.340;18.040;2023-07-31T12:38:03;2.53;;;1.57;;
12129;SDS011;6128;59.340;18.040;2023-07-31T12:40:30;3.30;;;1.80;;
12129;SDS011;6128;59.340;18.040;2023-07-31T12:42:58;3.33;;;2.23;;
12129;SDS011;6128;59.340;18.040;2023-07-31T12:45:28;3.17;;;2.70;;
12129;SDS011;6128;59.340;18.040;2023-07-31T12:47:56;7.50;;;6.53;;
12129;SDS011;6128;59.340;18.040;2023-07-31T12:50:24;2.83;;;1.37;;
12129;SDS011;6128;59.340;18.040;2023-07-31T12:52:52;1.57;;;1.33;;
12129;SDS011;6128;59.340;18.040;2023-07-31T12:55:20;1.20;;;1.10;;
12129;SDS011;6128;59.340;18.040;2023-07-31T12:57:47;2.20;;;1.27;;
12129;SDS011;6128;59.340;18.040;2023-07-31T13:00:14;3.77;;;1.40;;
12129;SDS011;6128;59.340;18.040;2023-07-31T13:02:42;1.53;;;1.27;;
12129;SDS011;6128;59.340;18.040;2023-07-31T13:05:09;2.03;;;1.67;;
12129;SDS011;6128;59.340;18.040;2023-07-31T13:07:37;1.70;;;1.00;;
12129;SDS011;6128;59.340;18.040;2023-07-31T13:10:05;1.83;;;1.40;;
12129;SDS011;6128;59.340;18.040;2023-07-31T13:12:33;1.40;;;1.30;;
12129;SDS011;6128;59.340;18.040;2023-07-31T13:15:00;1.47;;;1.30;;
12129;SDS011;6128;59.340;18.040;2023-07-31T13:17:27;1.57;;;1.13;;
12129;SDS011;6128;59.340;18.040;2023-07-31T13:19:54;1.93;;;1.20;;
12129;SDS011;6128;59.340;18.040;2023-07-31T13:22:21;2.63;;;1.30;;
12129;SDS011;6128;59.340;18.040;2023-07-31T13:24:50;1.30;;;1.10;;
12129;SDS011;6128;59.340;18.040;2023-07-31T13:27:17;2.17;;;1.47;;
12129;SDS011;6128;59.340;18.040;2023-07-31T13:29:46;2.67;;;1.00;;
12129;SDS011;6128;59.340;18.040;2023-07-31T13:32:14;0.97;;;0.80;;
12129;SDS011;6128;59.340;18.040;2023-07-31T13:34:41;1.10;;;1.00;;
12129;SDS011;6128;59.340;18.040;2023-07-31T13:37:09;1.00;;;0.90;;
12129;SDS011;6128;59.340;18.040;2023-07-31T13:39:36;2.13;;;1.30;;
12129;SDS011;6128;59.340;18.040;2023-07-31T13:42:05;0.87;;;0.87;;
12129;SDS011;6128;59.340;18.040;2023-07-31T13:44:33;2.83;;;1.20;;
12129;SDS011;6128;59.340;18.040;2023-07-31T13:47:00;1.20;;;1.10;;
12129;SDS011;6128;59.340;18.040;2023-07-31T13:49:28;1.73;;;1.10;;
12129;SDS011;6128;59.340;18.040;2023-07-31T13:51:55;2.07;;;1.17;;
12129;SDS011;6128;59.340;18.040;2023-07-31T13:54:23;2.20;;;1.30;;
12129;SDS011;6128;59.340;18.040;2023-07-31T13:56:50;3.07;;;1.53;;
12129;SDS011;6128;59.340;18.040;2023-07-31T13:59:19;1.57;;;1.20;;
12129;SDS011;6128;59.340;18.040;2023-07-31T14:01:47;2.33;;;1.27;;
12129;SDS011;6128;59.340;18.040;2023-07-31T14:04:14;1.90;;;1.20;;
12129;SDS011;6128;59.340;18.040;2023-07-31T14:06:42;1.40;;;1.10;;
12129;SDS011;6128;59.340;18.040;2023-07-31T14:09:10;3.37;;;2.30;;
12129;SDS011;6128;59.340;18.040;2023-07-31T14:11:37;1.90;;;1.30;;
12129;SDS011;6128;59.340;18.040;2023-07-31T14:14:04;1.67;;;1.17;;
12129;SDS011;6128;59.340;18.040;2023-07-31T14:16:33;1.57;;;1.43;;
12129;SDS011;6128;59.340;18.040;2023-07-31T14:19:00;2.67;;;1.57;;
12129;SDS011;6128;59.340;18.040;2023-07-31T14:21:27;2.17;;;1.90;;
12129;SDS011;6128;59.340;18.040;2023-07-31T14:23:54;1.63;;;1.03;;
12129;SDS011;6128;59.340;18.040;2023-07-31T14:26:21;2.23;;;1.30;;
12129;SDS011;6128;59.340;18.040;2023-07-31T14:28:48;1.93;;;1.47;;
12129;SDS011;6128;59.340;18.040;2023-07-31T14:31:16;1.70;;;1.40;;
12129;SDS011;6128;59.340;18.040;2023-07-31T14:33:44;1.50;;;1.30;;
12129;SDS011;6128;59.340;18.040;2023-07-31T14:36:12;1.83;;;1.37;;
12129;SDS011;6128;59.340;18.040;2023-07-31T14:38:39;1.70;;;1.47;;
12129;SDS011;6128;59.340;18.040;2023-07-31T14:41:06;3.93;;;1.80;;
12129;SDS011;6128;59.340;18.040;2023-07-31T14:43:33;2.17;;;1.80;;
12129;SDS011;6128;59.340;18.040;2023-07-31T14:46:00;2.53;;;1.63;;
12129;SDS011;6128;59.340;18.040;2023-07-31T14:48:27;2.23;;;1.60;;
12129;SDS011;6128;59.340;18.040;2023-07-31T14:50:56;2.40;;;1.40;;
12129;SDS011;6128;59.340;18.040;2023-07-31T14:53:24;3.37;;;2.00;;
12129;SDS011;6128;59.340;18.040;2023-07-31T14:55:51;2.27;;;1.77;;
12129;SDS011;6128;59.340;18.040;2023-07-31T14:58:18;2.37;;;1.80;;